Time;durP1;ratioP1;P1;durP2;ratioP2;P2;SDS_P1;SDS_P2;PMS_P1;PMS_P2;Temp;Humidity;BMP_temperature;BMP_pressure;BME280_temperature;BME280_humidity;BME280_pressure;Samples;Min_cycle;Max_cycle;Signal;HPM_P1;HPM_P2
2021/11/28 00:00:45;;;;;;;23.92;15.93;;;;;;;;;;10292705;28;20079;-64
2021/11/28 00:05:47;;;;;;;13.80;5.95;;;;;;;;;;10293333;28;20528;-64
2021/11/28 00:10:51;;;;;;;9.70;6.72;;;;;;;;;;10290294;28;20061;-63
2021/11/28 00:15:52;;;;;;;6.97;5.10;;;;;;;;;;10276012;28;20065;-63
2021/11/28 00:20:51;;;;;;;8.48;4.60;;;;;;;;;;10276602;28;20064;-64
2021/11/28 00:25:49;;;;;;;7.95;3.83;;;;;;;;;;10280623;28;20052;-63
2021/11/28 00:30:48;;;;;;;9.80;4.55;;;;;;;;;;10291039;28;20056;-64
2021/11/28 00:35:47;;;;;;;21.20;14.50;;;;;;;;;;10275962;28;20596;-63
2021/11/28 00:40:46;;;;;;;34.75;23.13;;;;;;;;;;10286623;28;20115;-64
2021/11/28 00:45:44;;;;;;;32.35;20.00;;;;;;;;;;10292904;28;20450;-65
2021/11/28 00:50:45;;;;;;;29.77;20.77;;;;;;;;;;10288801;28;20533;-63
2021/11/28 00:55:45;;;;;;;36.22;21.60;;;;;;;;;;10292375;28;20091;-64
2021/11/28 01:00:43;;;;;;;30.38;15.82;;;;;;;;;;10284860;28;20144;-63
2021/11/28 01:05:43;;;;;;;11.43;7.60;;;;;;;;;;10289014;28;20065;-63
2021/11/28 01:10:48;;;;;;;12.88;7.47;;;;;;;;;;10281840;28;20072;-63
2021/11/28 01:15:46;;;;;;;14.02;9.73;;;;;;;;;;10282007;28;20580;-64
2021/11/28 01:20:44;;;;;;;9.35;5.47;;;;;;;;;;10289954;28;20072;-64
2021/11/28 01:25:43;;;;;;;5.35;3.80;;;;;;;;;;10277895;28;20081;-63
2021/11/28 01:30:43;;;;;;;9.57;7.20;;;;;;;;;;10284262;28;20418;-63
2021/11/28 01:35:42;;;;;;;29.00;17.58;;;;;;;;;;10274234;28;20084;-64
2021/11/28 01:40:40;;;;;;;22.50;13.98;;;;;;;;;;10279452;28;20450;-63
2021/11/28 01:45:39;;;;;;;24.35;14.93;;;;;;;;;;10283376;28;20065;-63
2021/11/28 01:50:43;;;;;;;23.00;15.48;;;;;;;;;;10286603;28;20073;-64
2021/11/28 01:55:42;;;;;;;18.67;9.98;;;;;;;;;;10280074;28;20087;-64
2021/11/28 02:00:45;;;;;;;20.13;12.63;;;;;;;;;;10278246;28;20103;-64
2021/11/28 02:05:46;;;;;;;34.10;23.85;;;;;;;;;;10283439;28;20080;-64
2021/11/28 02:10:45;;;;;;;32.50;23.13;;;;;;;;;;10281790;28;20076;-64
2021/11/28 02:15:44;;;;;;;26.80;18.50;;;;;;;;;;10280505;28;20076;-64
2021/11/28 02:20:45;;;;;;;21.40;14.45;;;;;;;;;;10281942;28;20077;-64
2021/11/28 02:25:44;;;;;;;27.70;20.20;;;;;;;;;;10281147;28;20080;-64
2021/11/28 02:30:46;;;;;;;21.52;14.73;;;;;;;;;;10282192;28;20075;-64
2021/11/28 02:35:46;;;;;;;11.75;7.43;;;;;;;;;;10292722;28;20091;-64
2021/11/28 02:40:45;;;;;;;23.88;15.13;;;;;;;;;;10278440;28;20091;-64
2021/11/28 02:45:44;;;;;;;28.50;17.05;;;;;;;;;;10276643;28;20056;-64
2021/11/28 02:50:43;;;;;;;22.23;15.02;;;;;;;;;;10284418;28;20072;-64
2021/11/28 02:55:44;;;;;;;28.83;18.23;;;;;;;;;;10283917;28;20431;-64
2021/11/28 03:00:44;;;;;;;18.08;7.50;;;;;;;;;;10280371;28;20080;-64
2021/11/28 03:05:42;;;;;;;33.53;22.92;;;;;;;;;;10279603;28;20466;-64
2021/11/28 03:10:42;;;;;;;22.30;17.17;;;;;;;;;;10282599;28;20056;-64
2021/11/28 03:15:41;;;;;;;17.88;12.27;;;;;;;;;;10283619;28;20095;-64
2021/11/28 03:20:40;;;;;;;12.63;8.02;;;;;;;;;;10282337;28;20520;-64
2021/11/28 03:25:39;;;;;;;10.15;5.65;;;;;;;;;;10282020;28;20482;-64
2021/11/28 03:30:37;;;;;;;27.55;17.42;;;;;;;;;;10283000;28;20102;-64
2021/11/28 03:35:55;;;;;;;17.08;12.43;;;;;;;;;;10294817;28;20076;-64
2021/11/28 03:40:54;;;;;;;11.13;7.60;;;;;;;;;;10290457;28;20052;-64
2021/11/28 03:45:52;;;;;;;15.35;9.10;;;;;;;;;;10273281;28;20072;-64
2021/11/28 03:50:51;;;;;;;14.90;8.52;;;;;;;;;;10275780;28;20500;-64
2021/11/28 03:55:53;;;;;;;27.95;13.52;;;;;;;;;;10276047;28;20497;-64
2021/11/28 04:00:52;;;;;;;21.50;13.88;;;;;;;;;;10276794;28;20045;-63
2021/11/28 04:05:53;;;;;;;22.48;13.65;;;;;;;;;;10283003;28;20049;-64
2021/11/28 04:10:53;;;;;;;21.15;15.23;;;;;;;;;;10279154;28;20049;-64
2021/11/28 04:15:52;;;;;;;20.92;15.88;;;;;;;;;;10279018;28;20084;-64
2021/11/28 04:20:58;;;;;;;18.73;11.98;;;;;;;;;;10280170;28;20508;-64
2021/11/28 04:25:58;;;;;;;9.15;5.00;;;;;;;;;;10280839;28;20052;-63
2021/11/28 04:30:59;;;;;;;8.55;4.60;;;;;;;;;;10281160;28;20060;-64
2021/11/28 04:35:58;;;;;;;5.95;3.78;;;;;;;;;;10291291;28;20560;-64
2021/11/28 04:41:00;;;;;;;14.18;4.80;;;;;;;;;;10272661;28;20084;-65
2021/11/28 04:46:03;;;;;;;9.25;4.60;;;;;;;;;;10272691;28;20084;-64
2021/11/28 04:51:02;;;;;;;6.63;4.55;;;;;;;;;;10273936;28;20071;-64
2021/11/28 04:56:03;;;;;;;42.90;20.80;;;;;;;;;;10280068;28;20072;-64
2021/11/28 05:01:02;;;;;;;6.75;5.00;;;;;;;;;;10275432;28;20048;-62
2021/11/28 05:06:01;;;;;;;8.63;5.07;;;;;;;;;;10275567;28;20049;-63
2021/11/28 05:11:27;;;;;;;7.57;4.07;;;;;;;;;;10284976;28;20072;-64
2021/11/28 05:16:26;;;;;;;8.43;6.53;;;;;;;;;;10276354;28;20048;-64
2021/11/28 05:21:43;;;;;;;13.10;5.22;;;;;;;;;;10289068;28;20481;-64
2021/11/28 05:26:43;;;;;;;7.60;5.45;;;;;;;;;;10287428;28;20051;-64
2021/11/28 05:31:41;;;;;;;7.30;4.50;;;;;;;;;;10286466;28;20079;-64
2021/11/28 05:36:58;;;;;;;15.98;9.65;;;;;;;;;;10298324;28;20084;-64
2021/11/28 05:41:59;;;;;;;6.30;4.22;;;;;;;;;;10277713;28;20064;-65
2021/11/28 05:46:58;;;;;;;6.57;4.78;;;;;;;;;;10276845;28;20087;-64
2021/11/28 05:52:16;;;;;;;10.73;5.47;;;;;;;;;;10278702;28;20076;-64
2021/11/28 05:57:16;;;;;;;11.38;7.55;;;;;;;;;;10276077;28;20076;-64
2021/11/28 06:02:14;;;;;;;8.98;5.32;;;;;;;;;;10280004;28;20082;-64
2021/11/28 06:07:14;;;;;;;8.80;5.95;;;;;;;;;;10281249;28;20426;-64
2021/11/28 06:12:17;;;;;;;9.68;5.70;;;;;;;;;;10277062;28;20053;-64
2021/11/28 06:17:15;;;;;;;7.50;5.38;;;;;;;;;;10275928;28;20540;-64
2021/11/28 06:22:32;;;;;;;10.63;5.95;;;;;;;;;;10288241;28;20080;-63
2021/11/28 06:27:32;;;;;;;11.25;6.00;;;;;;;;;;10277020;28;20382;-64
2021/11/28 06:32:30;;;;;;;7.97;4.60;;;;;;;;;;10275165;28;20068;-63
2021/11/28 06:37:47;;;;;;;13.70;7.85;;;;;;;;;;10312918;28;20088;-64
2021/11/28 06:43:05;;;;;;;9.95;6.15;;;;;;;;;;10286032;28;20160;-64
2021/11/28 06:48:04;;;;;;;11.57;6.50;;;;;;;;;;10281771;28;20089;-63
2021/11/28 06:53:17;;;;;;;42.22;31.77;;;;;;;;;;10273162;28;20045;-63
2021/11/28 06:58:43;;;;;;;17.45;10.70;;;;;;;;;;10304757;28;20068;-64
2021/11/28 07:03:42;;;;;;;76.38;44.78;;;;;;;;;;10273700;28;20044;-64
2021/11/28 07:09:00;;;;;;;29.23;12.55;;;;;;;;;;10277601;28;20072;-66
2021/11/28 07:14:01;;;;;;;19.13;13.52;;;;;;;;;;10281427;28;20072;-63
2021/11/28 07:19:00;;;;;;;34.72;24.38;;;;;;;;;;10279583;28;20094;-64
2021/11/28 07:24:17;;;;;;;20.42;13.50;;;;;;;;;;10285072;28;20064;-64
2021/11/28 07:29:17;;;;;;;19.77;12.77;;;;;;;;;;10293102;28;20068;-65
2021/11/28 07:34:15;;;;;;;20.55;16.15;;;;;;;;;;10283802;28;20486;-64
2021/11/28 07:39:32;;;;;;;22.35;15.93;;;;;;;;;;10269618;28;20080;-64
2021/11/28 07:44:32;;;;;;;21.08;13.00;;;;;;;;;;10278161;28;20069;-64
2021/11/28 07:49:49;;;;;;;19.35;11.77;;;;;;;;;;10275101;28;20072;-65
2021/11/28 07:54:52;;;;;;;20.17;15.25;;;;;;;;;;10283440;28;20064;-64
2021/11/28 08:00:10;;;;;;;22.35;16.08;;;;;;;;;;10287875;28;20522;-64
2021/11/28 08:05:14;;;;;;;27.08;19.30;;;;;;;;;;10273896;28;20513;-64
2021/11/28 08:10:41;;;;;;;17.98;15.07;;;;;;;;;;10272570;28;20482;-64
2021/11/28 08:15:41;;;;;;;29.52;18.75;;;;;;;;;;10285294;28;20109;-64
2021/11/28 08:20:39;;;;;;;30.98;20.65;;;;;;;;;;10272804;28;20454;-64
2021/11/28 08:25:38;;;;;;;26.65;17.85;;;;;;;;;;10272290;28;20111;-64
2021/11/28 08:30:36;;;;;;;36.30;23.08;;;;;;;;;;10289414;28;20517;-64
2021/11/28 08:35:56;;;;;;;65.32;42.15;;;;;;;;;;10285064;28;20049;-64
2021/11/28 08:40:54;;;;;;;48.30;33.42;;;;;;;;;;10270739;28;20072;-64
2021/11/28 08:45:52;;;;;;;36.65;23.85;;;;;;;;;;10275796;28;20072;-64
2021/11/28 08:50:51;;;;;;;24.40;20.02;;;;;;;;;;10279716;28;20071;-63
2021/11/28 08:55:51;;;;;;;27.25;18.20;;;;;;;;;;10279429;28;20069;-64
2021/11/28 09:00:49;;;;;;;30.40;19.83;;;;;;;;;;10279629;28;20080;-63
2021/11/28 09:05:47;;;;;;;22.23;15.18;;;;;;;;;;10289253;28;20041;-63
2021/11/28 09:10:46;;;;;;;33.92;20.10;;;;;;;;;;10278854;28;20088;-64
2021/11/28 09:15:45;;;;;;;29.33;20.70;;;;;;;;;;10279005;28;20076;-63
2021/11/28 09:21:03;;;;;;;25.83;17.88;;;;;;;;;;10287599;28;20076;-64
2021/11/28 09:26:01;;;;;;;22.63;16.55;;;;;;;;;;10277464;28;20482;-64
2021/11/28 09:31:01;;;;;;;31.20;18.50;;;;;;;;;;10277004;28;20061;-64
2021/11/28 09:36:00;;;;;;;28.15;18.40;;;;;;;;;;10291840;28;20076;-64
2021/11/28 09:40:59;;;;;;;28.35;20.40;;;;;;;;;;10276924;28;20073;-64
2021/11/28 09:45:58;;;;;;;28.48;19.30;;;;;;;;;;10287770;28;20083;-64
2021/11/28 09:50:58;;;;;;;24.52;18.02;;;;;;;;;;10287465;28;20481;-64
2021/11/28 09:56:06;;;;;;;28.27;20.35;;;;;;;;;;10286716;28;20087;-64
2021/11/28 10:01:05;;;;;;;18.08;14.80;;;;;;;;;;10287173;28;20072;-64
2021/11/28 10:06:06;;;;;;;16.60;14.10;;;;;;;;;;10275711;28;20069;-62
2021/11/28 10:11:23;;;;;;;15.45;12.10;;;;;;;;;;10278240;28;20095;-63
2021/11/28 10:16:22;;;;;;;12.40;8.48;;;;;;;;;;10292398;28;20083;-64
2021/11/28 10:21:22;;;;;;;27.35;14.10;;;;;;;;;;10286343;28;20085;-63
2021/11/28 10:26:20;;;;;;;23.63;13.90;;;;;;;;;;10279237;28;20111;-63
2021/11/28 10:31:22;;;;;;;19.20;13.20;;;;;;;;;;10270950;28;20084;-64
2021/11/28 10:36:22;;;;;;;18.50;13.27;;;;;;;;;;10283930;28;20080;-65
2021/11/28 10:41:21;;;;;;;28.35;15.20;;;;;;;;;;10289092;28;20087;-65
2021/11/28 10:46:23;;;;;;;43.67;27.08;;;;;;;;;;10278419;28;20061;-63
2021/11/28 10:51:25;;;;;;;26.50;17.73;;;;;;;;;;10281330;28;20075;-63
2021/11/28 10:56:23;;;;;;;26.90;18.10;;;;;;;;;;10281649;28;20077;-64
2021/11/28 11:01:28;;;;;;;32.28;22.73;;;;;;;;;;10282998;28;20073;-64
2021/11/28 11:06:28;;;;;;;28.80;20.10;;;;;;;;;;10285054;28;20068;-63
2021/11/28 11:11:36;;;;;;;25.45;18.10;;;;;;;;;;10284802;28;20068;-64
2021/11/28 11:16:36;;;;;;;29.73;20.17;;;;;;;;;;10287209;28;20371;-63
2021/11/28 11:21:55;;;;;;;25.25;18.30;;;;;;;;;;10272509;28;20083;-65
2021/11/28 11:26:55;;;;;;;18.88;12.18;;;;;;;;;;10271380;28;20073;-64
2021/11/28 11:31:54;;;;;;;29.40;20.55;;;;;;;;;;10283013;28;20171;-62
2021/11/28 11:36:55;;;;;;;30.55;19.52;;;;;;;;;;10287061;28;20433;-64
2021/11/28 11:41:55;;;;;;;21.73;15.98;;;;;;;;;;10269102;28;20557;-63
2021/11/28 11:46:54;;;;;;;29.45;20.20;;;;;;;;;;10269758;28;20548;-64
2021/11/28 11:51:53;;;;;;;28.35;20.25;;;;;;;;;;10281747;28;20099;-64
2021/11/28 11:56:57;;;;;;;22.60;16.23;;;;;;;;;;10282535;28;20056;-64
2021/11/28 12:02:00;;;;;;;20.20;13.70;;;;;;;;;;10282569;28;20636;-64
2021/11/28 12:06:58;;;;;;;42.28;28.25;;;;;;;;;;10280554;28;20092;-64
2021/11/28 12:11:59;;;;;;;26.30;16.63;;;;;;;;;;10271955;28;20060;-64
2021/11/28 12:16:58;;;;;;;41.53;26.90;;;;;;;;;;10273579;28;20072;-63
2021/11/28 12:21:57;;;;;;;44.53;27.73;;;;;;;;;;10279711;28;20081;-64
2021/11/28 12:26:57;;;;;;;68.45;45.40;;;;;;;;;;10280407;28;20037;-64
2021/11/28 12:31:57;;;;;;;43.22;31.02;;;;;;;;;;10280860;28;20077;-64
2021/11/28 12:36:57;;;;;;;42.67;31.50;;;;;;;;;;10292526;28;20068;-64
2021/11/28 12:42:02;;;;;;;43.17;25.45;;;;;;;;;;10297686;28;20084;-64
2021/11/28 12:47:17;;;;;;;34.50;20.27;;;;;;;;;;10283574;28;20466;-64
2021/11/28 12:52:34;;;;;;;30.02;20.40;;;;;;;;;;10281242;28;20460;-63
2021/11/28 12:57:33;;;;;;;21.30;15.02;;;;;;;;;;10285788;28;20088;-63
2021/11/28 13:02:43;;;;;;;21.13;14.32;;;;;;;;;;10285626;28;20115;-63
2021/11/28 13:07:41;;;;;;;28.48;23.20;;;;;;;;;;10278222;28;20064;-63
2021/11/28 13:12:43;;;;;;;35.67;20.38;;;;;;;;;;10279369;28;20509;-64
2021/11/28 13:17:42;;;;;;;31.35;20.55;;;;;;;;;;10291762;28;20083;-64
2021/11/28 13:22:42;;;;;;;37.55;27.23;;;;;;;;;;10276681;28;20069;-64
2021/11/28 13:28:03;;;;;;;39.42;26.77;;;;;;;;;;10292985;28;20072;-64
2021/11/28 13:33:10;;;;;;;41.05;29.98;;;;;;;;;;10290637;28;20088;-64
2021/11/28 13:38:15;;;;;;;60.28;37.78;;;;;;;;;;10276851;28;20080;-64
2021/11/28 13:43:30;;;;;;;89.35;60.75;;;;;;;;;;10270320;28;20069;-64
2021/11/28 13:48:40;;;;;;;103.95;69.68;;;;;;;;;;10280043;28;20540;-64
2021/11/28 13:53:56;;;;;;;86.03;58.72;;;;;;;;;;10283411;28;20509;-64
2021/11/28 13:59:04;;;;;;;76.32;51.72;;;;;;;;;;10276162;28;20509;-64
2021/11/28 14:04:17;;;;;;;75.93;50.55;;;;;;;;;;10276560;28;20092;-64
2021/11/28 14:09:15;;;;;;;89.20;54.10;;;;;;;;;;10276330;28;20486;-64
2021/11/28 14:14:14;;;;;;;133.38;74.30;;;;;;;;;;10282723;28;20075;-64
2021/11/28 14:19:14;;;;;;;107.97;61.20;;;;;;;;;;10284080;28;20068;-64
2021/11/28 14:24:25;;;;;;;46.75;28.83;;;;;;;;;;10285277;28;20095;-65
2021/11/28 14:29:24;;;;;;;33.60;20.30;;;;;;;;;;10276398;28;20083;-65
2021/11/28 14:34:24;;;;;;;31.63;19.13;;;;;;;;;;10289147;28;20072;-64
2021/11/28 14:39:33;;;;;;;26.83;19.20;;;;;;;;;;10286069;28;20078;-65
2021/11/28 14:44:32;;;;;;;23.65;13.82;;;;;;;;;;10287488;28;20502;-64
2021/11/28 14:49:32;;;;;;;11.73;9.25;;;;;;;;;;10286037;28;20083;-64
2021/11/28 14:54:31;;;;;;;15.77;10.75;;;;;;;;;;10275307;28;20073;-64
2021/11/28 14:59:30;;;;;;;14.48;7.03;;;;;;;;;;10273834;28;20064;-64
2021/11/28 15:04:29;;;;;;;10.63;8.73;;;;;;;;;;10274641;28;20065;-64
2021/11/28 15:09:30;;;;;;;17.38;12.02;;;;;;;;;;10274431;28;20101;-64
2021/11/28 15:14:28;;;;;;;12.75;10.02;;;;;;;;;;10284468;28;20442;-64
2021/11/28 15:19:27;;;;;;;19.80;10.57;;;;;;;;;;10283284;28;20064;-64
2021/11/28 15:24:26;;;;;;;24.35;14.48;;;;;;;;;;10284087;28;20540;-64
2021/11/28 15:29:26;;;;;;;23.35;14.98;;;;;;;;;;10284968;28;20091;-64
2021/11/28 15:34:26;;;;;;;18.13;11.65;;;;;;;;;;10288526;28;20073;-64
2021/11/28 15:39:24;;;;;;;26.42;15.88;;;;;;;;;;10273281;28;20072;-64
2021/11/28 15:44:23;;;;;;;33.33;20.75;;;;;;;;;;10273443;28;20076;-64
2021/11/28 15:49:22;;;;;;;22.88;16.17;;;;;;;;;;10275391;28;20120;-64
2021/11/28 15:54:21;;;;;;;15.13;10.45;;;;;;;;;;10284699;28;20068;-63
2021/11/28 15:59:19;;;;;;;15.80;9.70;;;;;;;;;;10271114;28;20053;-64
2021/11/28 16:04:18;;;;;;;10.90;8.52;;;;;;;;;;10268413;28;20072;-63
2021/11/28 16:09:17;;;;;;;15.13;11.50;;;;;;;;;;10276894;28;20075;-63
2021/11/28 16:14:16;;;;;;;16.05;11.52;;;;;;;;;;10279363;28;20333;-64
2021/11/28 16:19:14;;;;;;;11.77;8.13;;;;;;;;;;10276190;28;20068;-63
2021/11/28 16:24:13;;;;;;;11.02;7.70;;;;;;;;;;10280717;28;20487;-64
2021/11/28 16:29:12;;;;;;;11.77;7.85;;;;;;;;;;10272288;28;20432;-64
2021/11/28 16:34:11;;;;;;;16.23;10.02;;;;;;;;;;10285167;28;20061;-63
2021/11/28 16:39:09;;;;;;;12.95;6.53;;;;;;;;;;10271925;28;20069;-62
2021/11/28 16:44:08;;;;;;;10.90;8.43;;;;;;;;;;10278959;28;20076;-64
2021/11/28 16:49:09;;;;;;;11.13;8.35;;;;;;;;;;10282876;28;20065;-64
2021/11/28 16:54:09;;;;;;;15.13;9.77;;;;;;;;;;10283242;28;20380;-63
2021/11/28 16:59:07;;;;;;;14.18;9.82;;;;;;;;;;10272141;28;20065;-65
2021/11/28 17:04:07;;;;;;;12.73;9.95;;;;;;;;;;10271180;28;20538;-65
2021/11/28 17:09:06;;;;;;;13.43;8.00;;;;;;;;;;10278965;28;20083;-65
2021/11/28 17:14:05;;;;;;;7.88;4.75;;;;;;;;;;10284332;28;20098;-64
2021/11/28 17:19:04;;;;;;;21.52;14.98;;;;;;;;;;10279422;28;20474;-63
2021/11/28 17:24:05;;;;;;;13.65;10.13;;;;;;;;;;10277584;28;20072;-64
2021/11/28 17:29:04;;;;;;;12.55;7.90;;;;;;;;;;10278248;28;20111;-64
2021/11/28 17:34:02;;;;;;;12.13;8.48;;;;;;;;;;10291156;28;20061;-64
2021/11/28 17:39:01;;;;;;;17.40;11.48;;;;;;;;;;10286261;28;20060;-64
2021/11/28 17:44:01;;;;;;;9.05;6.10;;;;;;;;;;10294453;28;20084;-64
2021/11/28 17:48:59;;;;;;;9.57;6.82;;;;;;;;;;10276950;28;20064;-63
2021/11/28 17:53:57;;;;;;;11.68;7.18;;;;;;;;;;10277178;28;20528;-63
2021/11/28 17:58:56;;;;;;;6.38;4.78;;;;;;;;;;10288646;28;20441;-63
2021/11/28 18:03:55;;;;;;;13.00;8.50;;;;;;;;;;10276662;28;20562;-63
2021/11/28 18:08:54;;;;;;;6.20;3.97;;;;;;;;;;10276939;28;20535;-63
2021/11/28 18:13:52;;;;;;;10.18;8.00;;;;;;;;;;10280297;28;20603;-63
2021/11/28 18:18:50;;;;;;;11.55;9.02;;;;;;;;;;10278771;28;20490;-63
2021/11/28 18:23:50;;;;;;;7.18;5.63;;;;;;;;;;10275484;28;20072;-63
2021/11/28 18:28:49;;;;;;;8.85;5.35;;;;;;;;;;10276323;28;20527;-64
2021/11/28 18:33:47;;;;;;;7.60;5.13;;;;;;;;;;10289147;28;20076;-64
2021/11/28 18:38:46;;;;;;;13.98;9.25;;;;;;;;;;10280157;28;20080;-64
2021/11/28 18:43:45;;;;;;;10.20;7.28;;;;;;;;;;10287360;28;20083;-63
2021/11/28 18:48:44;;;;;;;6.28;4.78;;;;;;;;;;10275448;28;20084;-64
2021/11/28 18:53:42;;;;;;;13.23;8.27;;;;;;;;;;10286387;28;20091;-63
2021/11/28 18:58:40;;;;;;;17.35;11.20;;;;;;;;;;10274837;28;20064;-64
2021/11/28 19:03:40;;;;;;;21.42;12.57;;;;;;;;;;10274251;28;20072;-64
2021/11/28 19:08:39;;;;;;;97.45;60.03;;;;;;;;;;10284802;28;20083;-63
2021/11/28 19:13:37;;;;;;;33.47;23.55;;;;;;;;;;10288980;28;20560;-63
2021/11/28 19:18:35;;;;;;;42.63;29.73;;;;;;;;;;10277322;28;20148;-64
2021/11/28 19:23:35;;;;;;;39.42;28.17;;;;;;;;;;10280841;28;20071;-63
2021/11/28 19:28:34;;;;;;;30.77;23.33;;;;;;;;;;10282903;28;20072;-63
2021/11/28 19:33:32;;;;;;;38.15;28.23;;;;;;;;;;10287321;28;20080;-63
2021/11/28 19:38:31;;;;;;;22.48;17.80;;;;;;;;;;10280062;28;20068;-63
2021/11/28 19:43:30;;;;;;;10.35;9.15;;;;;;;;;;10292581;28;20067;-63
2021/11/28 19:48:29;;;;;;;25.48;18.25;;;;;;;;;;10311173;28;20075;-64
2021/11/28 19:53:27;;;;;;;30.20;22.30;;;;;;;;;;10293311;28;20060;-64
2021/11/28 19:58:26;;;;;;;23.38;16.30;;;;;;;;;;10299362;28;20068;-63
2021/11/28 20:03:25;;;;;;;36.65;22.08;;;;;;;;;;10288208;28;20076;-64
2021/11/28 20:08:26;;;;;;;33.72;22.77;;;;;;;;;;10284119;28;20388;-64
2021/11/28 20:13:24;;;;;;;19.35;15.43;;;;;;;;;;10292277;28;20077;-64
2021/11/28 20:18:23;;;;;;;8.02;5.20;;;;;;;;;;10275349;28;20548;-63
2021/11/28 20:23:22;;;;;;;14.35;11.23;;;;;;;;;;10274389;28;20514;-63
2021/11/28 20:28:23;;;;;;;7.28;5.60;;;;;;;;;;10278082;28;20477;-64
2021/11/28 20:33:22;;;;;;;7.32;4.43;;;;;;;;;;10282645;28;20080;-61
2021/11/28 20:38:20;;;;;;;4.55;3.70;;;;;;;;;;10278826;28;20080;-63
2021/11/28 20:43:20;;;;;;;14.68;8.70;;;;;;;;;;10285052;28;20076;-64
2021/11/28 20:48:18;;;;;;;6.50;5.18;;;;;;;;;;10285735;28;20071;-63
2021/11/28 20:53:17;;;;;;;11.05;8.27;;;;;;;;;;10284150;28;20374;-64
2021/11/28 20:58:15;;;;;;;11.93;8.02;;;;;;;;;;10298189;28;20072;-64
2021/11/28 21:03:15;;;;;;;20.25;11.02;;;;;;;;;;10316634;28;20116;-63
2021/11/28 21:08:13;;;;;;;13.98;9.07;;;;;;;;;;10316394;28;20068;-63
2021/11/28 21:13:15;;;;;;;38.55;20.92;;;;;;;;;;10291649;28;20071;-64
2021/11/28 21:18:15;;;;;;;16.27;10.68;;;;;;;;;;10293088;28;20065;-64
2021/11/28 21:23:14;;;;;;;8.00;6.07;;;;;;;;;;10279661;28;20068;-63
2021/11/28 21:28:13;;;;;;;17.52;7.50;;;;;;;;;;10277180;28;20064;-63
2021/11/28 21:33:11;;;;;;;8.65;4.50;;;;;;;;;;10302115;28;20072;-63
2021/11/28 21:38:11;;;;;;;14.50;6.53;;;;;;;;;;10284144;28;20103;-63
2021/11/28 21:43:10;;;;;;;12.52;8.10;;;;;;;;;;10277012;28;20084;-62
2021/11/28 21:48:08;;;;;;;6.95;5.18;;;;;;;;;;10282415;28;20067;-64
2021/11/28 21:53:07;;;;;;;5.78;4.57;;;;;;;;;;10279087;28;20080;-64
2021/11/28 21:58:07;;;;;;;5.68;3.65;;;;;;;;;;10278056;28;20076;-64
2021/11/28 22:03:05;;;;;;;6.72;4.47;;;;;;;;;;10291350;28;20080;-64
2021/11/28 22:08:04;;;;;;;9.65;4.10;;;;;;;;;;10275640;28;20113;-64
2021/11/28 22:13:04;;;;;;;8.45;4.15;;;;;;;;;;10274633;28;20069;-63
2021/11/28 22:18:04;;;;;;;5.03;3.92;;;;;;;;;;10282108;28;20075;-64
2021/11/28 22:23:03;;;;;;;4.53;3.35;;;;;;;;;;10280624;28;20490;-64
2021/11/28 22:28:01;;;;;;;3.60;2.60;;;;;;;;;;10274622;28;20083;-64
2021/11/28 22:33:00;;;;;;;7.38;3.78;;;;;;;;;;10277512;28;20092;-64
2021/11/28 22:38:01;;;;;;;5.15;2.72;;;;;;;;;;10291715;28;20084;-63
2021/11/28 22:43:00;;;;;;;3.75;3.25;;;;;;;;;;10293957;28;20069;-63
2021/11/28 22:47:58;;;;;;;5.95;3.78;;;;;;;;;;10272919;28;20076;-64
2021/11/28 22:52:57;;;;;;;16.23;7.43;;;;;;;;;;10273221;28;20463;-64
2021/11/28 22:57:57;;;;;;;6.65;3.78;;;;;;;;;;10273943;28;20079;-64
2021/11/28 23:02:57;;;;;;;8.75;2.95;;;;;;;;;;10273713;28;20556;-64
2021/11/28 23:07:55;;;;;;;8.23;3.17;;;;;;;;;;10281628;28;20070;-64
2021/11/28 23:12:54;;;;;;;5.93;4.30;;;;;;;;;;10283479;28;20072;-63
2021/11/28 23:17:53;;;;;;;6.35;2.92;;;;;;;;;;10276021;28;20080;-64
2021/11/28 23:22:53;;;;;;;7.25;3.65;;;;;;;;;;10278150;28;20084;-63
2021/11/28 23:27:51;;;;;;;8.57;3.92;;;;;;;;;;10271664;28;20522;-64
2021/11/28 23:32:49;;;;;;;7.32;4.50;;;;;;;;;;10280437;28;20103;-63
2021/11/28 23:37:49;;;;;;;4.82;2.80;;;;;;;;;;10278297;28;20407;-64
2021/11/28 23:42:47;;;;;;;6.00;3.30;;;;;;;;;;10272731;28;20064;-64
2021/11/28 23:47:46;;;;;;;9.80;3.53;;;;;;;;;;10272331;28;20060;-64
2021/11/28 23:52:48;;;;;;;6.40;3.40;;;;;;;;;;10274959;28;20064;-64
2021/11/28 23:57:48;;;;;;;5.28;3.00;;;;;;;;;;10282576;28;20506;-64
